Terminal Aerodrome Forecast
Issued by NWS

Home | Current Version | Previous Version | Graphics & Text | Print | Product List | Glossary On
Versions: 1 2 3 4 5 6 7 8 9 10 11 12 13
000
FTUS45 KGGW 231720
TAFGDV
TAF
KGDV 231720Z 2318/2418 24020G30KT P6SM SCT080
     FM240000 26014KT P6SM BKN100
     FM240300 27007KT P6SM BKN120
      AMD NOT SKED=

USA.gov is the U.S. government's official web portal to all federal, state and local government web resources and services.